Terminal Aerodrome Forecast
Issued by NWS Milwaukee/Sullivan, WI

Current Version | Previous Version | Text Only | Print | Product List | Glossary On
Versions: 1 2 3 4 5 6 7 8 9 10 11 12 13 14 15 16 17 18 19 20 21 22 23 24 25 26 27 28 29 30 31 32 33 34 35 36 37 38 39 40 41 42 43 44 45 46 47 48 49 50
000
FTUS43 KMKX 290549
TAFMKE
TAF
KMKE 290549Z 2906/3012 16012KT P6SM VCSH BKN100 OVC200
     FM290900 18011KT 6SM BR SCT025 OVC040
      TEMPO 2909/2912 -FZDZ BKN015 OVC025
     FM291200 29006KT 5SM -SNPL BR OVC008
     FM291400 31011KT 3SM BR OVC008
     FM292100 32017G26KT P6SM OVC035
     FM300500 33014G21KT P6SM BKN050=

USA.gov is the U.S. government's official web portal to all federal, state and local government web resources and services.